Time;durP1;ratioP1;P1;durP2;ratioP2;P2;SDS_P1;SDS_P2;PMS_P1;PMS_P2;Temp;Humidity;BMP_temperature;BMP_pressure;BME280_temperature;BME280_humidity;BME280_pressure;Samples;Min_cycle;Max_cycle;Signal;HPM_P1;HPM_P2
2022/04/18 00:00:29;;;;;;;12.80;8.68;;;;;;;;;;5015745;28;94313;-74
2022/04/18 00:02:58;;;;;;;12.82;8.57;;;;;;;;;;5017477;28;94404;-74
2022/04/18 00:05:24;;;;;;;15.00;9.55;;;;;;;;;;4999434;28;92800;-73
2022/04/18 00:07:51;;;;;;;11.15;9.13;;;;;;;;;;5013641;28;93583;-74
2022/04/18 00:10:17;;;;;;;13.70;8.77;;;;;;;;;;5015226;28;92475;-74
2022/04/18 00:12:44;;;;;;;12.63;9.65;;;;;;;;;;5013777;28;93927;-74
2022/04/18 00:15:10;;;;;;;9.65;8.65;;;;;;;;;;5013852;28;97199;-74
2022/04/18 00:17:36;;;;;;;10.43;8.82;;;;;;;;;;5013348;28;92502;-73
2022/04/18 00:20:03;;;;;;;10.40;8.93;;;;;;;;;;5013713;28;93166;-73
2022/04/18 00:22:30;;;;;;;9.50;8.45;;;;;;;;;;5010254;28;93121;-73
2022/04/18 00:24:56;;;;;;;9.98;9.00;;;;;;;;;;5000703;28;92779;-73
2022/04/18 00:27:22;;;;;;;14.38;8.35;;;;;;;;;;5014689;28;94111;-73
2022/04/18 00:29:50;;;;;;;10.05;9.02;;;;;;;;;;5014202;28;93097;-73
2022/04/18 00:32:17;;;;;;;10.05;9.05;;;;;;;;;;5013899;28;93981;-73
2022/04/18 00:34:43;;;;;;;17.20;9.63;;;;;;;;;;5013704;28;94039;-73
2022/04/18 00:37:16;;;;;;;;;;;;;;;;;;5016180;28;92865;-74
2022/04/18 00:39:42;;;;;;;12.13;9.38;;;;;;;;;;5011925;28;121927;-73
2022/04/18 00:42:08;;;;;;;12.35;9.50;;;;;;;;;;5015111;28;94323;-74
2022/04/18 00:44:35;;;;;;;11.68;9.07;;;;;;;;;;5012300;28;92591;-73
2022/04/18 00:47:01;;;;;;;12.15;9.82;;;;;;;;;;5016408;28;95613;-74
2022/04/18 00:49:28;;;;;;;12.85;10.13;;;;;;;;;;5012326;28;92420;-73
2022/04/18 00:51:55;;;;;;;13.25;9.85;;;;;;;;;;4998390;28;94095;-73
2022/04/18 00:54:21;;;;;;;14.23;10.02;;;;;;;;;;5005078;28;93184;-73
2022/04/18 00:56:48;;;;;;;13.38;10.45;;;;;;;;;;5014871;28;91711;-73
2022/04/18 00:59:14;;;;;;;15.02;10.50;;;;;;;;;;5012180;28;92494;-73
2022/04/18 01:01:41;;;;;;;13.13;10.50;;;;;;;;;;5010563;28;95843;-73
2022/04/18 01:04:07;;;;;;;16.88;10.23;;;;;;;;;;5011386;28;95288;-73
2022/04/18 01:06:34;;;;;;;12.23;10.90;;;;;;;;;;5014968;28;95280;-73
2022/04/18 01:09:01;;;;;;;13.25;11.20;;;;;;;;;;5012118;28;92529;-73
2022/04/18 01:11:28;;;;;;;11.65;10.18;;;;;;;;;;5010893;28;94105;-73
2022/04/18 01:14:14;;;;;;;13.98;10.93;;;;;;;;;;5012392;28;93410;-73
2022/04/18 01:16:50;;;;;;;12.35;10.10;;;;;;;;;;5012050;28;92427;-73
2022/04/18 01:19:35;;;;;;;15.00;10.77;;;;;;;;;;5014405;28;92471;-73
2022/04/18 01:22:20;;;;;;;13.32;10.52;;;;;;;;;;5007052;28;91914;-73
2022/04/18 01:30:20;;;;;;;16.73;10.80;;;;;;;;;;5004250;28;97481;-74
2022/04/18 01:32:47;;;;;;;14.02;10.68;;;;;;;;;;5002578;28;96338;-73
2022/04/18 01:35:14;;;;;;;13.45;11.25;;;;;;;;;;5010421;28;95774;-73
2022/04/18 01:37:40;;;;;;;13.10;11.45;;;;;;;;;;5010881;28;92552;-74
2022/04/18 01:40:10;;;;;;;14.55;11.70;;;;;;;;;;4996617;28;95161;-74
2022/04/18 01:42:37;;;;;;;15.77;11.43;;;;;;;;;;4974723;28;95113;-73
2022/04/18 01:45:04;;;;;;;13.95;10.75;;;;;;;;;;4986909;28;93139;-74
2022/04/18 01:47:31;;;;;;;13.38;11.18;;;;;;;;;;5000492;28;95276;-74
2022/04/18 01:49:57;;;;;;;15.05;11.02;;;;;;;;;;5011507;28;93550;-73
2022/04/18 01:52:24;;;;;;;18.48;12.63;;;;;;;;;;5012378;28;92525;-73
2022/04/18 01:54:50;;;;;;;16.67;11.45;;;;;;;;;;4992172;28;97723;-73
2022/04/18 01:57:19;;;;;;;16.50;11.70;;;;;;;;;;5010689;28;92897;-73
2022/04/18 01:59:46;;;;;;;15.93;11.75;;;;;;;;;;5010708;28;93842;-74
2022/04/18 02:02:12;;;;;;;16.60;11.65;;;;;;;;;;5011979;28;96057;-74
2022/04/18 02:04:39;;;;;;;17.02;12.23;;;;;;;;;;5010688;28;92868;-74
2022/04/18 02:07:10;;;;;;;17.33;11.80;;;;;;;;;;5009605;28;92981;-74
2022/04/18 02:09:45;;;;;;;17.40;12.40;;;;;;;;;;5010457;28;95377;-74
2022/04/18 02:12:12;;;;;;;14.18;12.50;;;;;;;;;;5013487;28;91757;-74
2022/04/18 02:14:49;;;;;;;15.43;12.65;;;;;;;;;;5014245;28;94352;-74
2022/04/18 02:17:17;;;;;;;14.48;12.15;;;;;;;;;;5005490;28;92672;-74
2022/04/18 02:19:44;;;;;;;17.83;12.57;;;;;;;;;;5010965;28;95753;-74
2022/04/18 02:22:12;;;;;;;15.55;12.48;;;;;;;;;;5011337;28;93084;-73
2022/04/18 02:24:39;;;;;;;15.20;13.50;;;;;;;;;;5008872;28;92487;-73
2022/04/18 02:27:06;;;;;;;17.55;13.57;;;;;;;;;;5008605;28;94884;-74
2022/04/18 02:29:33;;;;;;;18.80;14.07;;;;;;;;;;5009617;28;95022;-73
2022/04/18 02:34:45;;;;;;;22.88;14.15;;;;;;;;;;5008156;28;95029;-73
2022/04/18 02:37:11;;;;;;;16.10;13.55;;;;;;;;;;5011424;28;92636;-73
2022/04/18 02:39:37;;;;;;;18.92;13.20;;;;;;;;;;5009208;28;92545;-73
2022/04/18 02:42:04;;;;;;;18.15;14.23;;;;;;;;;;5010221;28;95710;-73
2022/04/18 02:44:32;;;;;;;19.85;13.60;;;;;;;;;;5009702;28;95190;-73
2022/04/18 02:46:59;;;;;;;19.63;13.45;;;;;;;;;;5010795;28;95892;-73
2022/04/18 02:49:25;;;;;;;17.73;12.88;;;;;;;;;;5011096;28;92929;-73
2022/04/18 02:51:52;;;;;;;18.17;13.35;;;;;;;;;;5009858;28;92585;-73
2022/04/18 02:54:20;;;;;;;15.88;13.52;;;;;;;;;;4999124;28;94100;-73
2022/04/18 02:56:47;;;;;;;17.55;13.68;;;;;;;;;;5011183;28;93278;-73
2022/04/18 02:59:13;;;;;;;18.65;12.77;;;;;;;;;;5012207;28;92965;-73
2022/04/18 03:01:40;;;;;;;17.55;12.95;;;;;;;;;;5011375;28;94898;-73
2022/04/18 03:04:06;;;;;;;14.98;13.30;;;;;;;;;;5011238;28;92525;-73
2022/04/18 03:06:35;;;;;;;15.85;13.13;;;;;;;;;;5010175;28;95053;-73
2022/04/18 03:09:01;;;;;;;18.65;13.32;;;;;;;;;;5007312;28;98243;-73
2022/04/18 03:11:28;;;;;;;19.10;12.80;;;;;;;;;;5010499;28;92737;-73
2022/04/18 03:13:55;;;;;;;16.00;12.40;;;;;;;;;;5008256;28;95683;-73
2022/04/18 03:16:31;;;;;;;18.10;12.50;;;;;;;;;;5010713;28;93190;-73
2022/04/18 03:18:58;;;;;;;14.63;11.95;;;;;;;;;;5012673;28;92709;-73
2022/04/18 03:21:25;;;;;;;21.35;11.60;;;;;;;;;;5008288;28;94129;-73
2022/04/18 03:23:55;;;;;;;17.25;12.13;;;;;;;;;;4998617;28;92529;-73
2022/04/18 03:26:32;;;;;;;13.25;11.60;;;;;;;;;;4987754;28;94982;-73
2022/04/18 03:29:11;;;;;;;16.73;12.32;;;;;;;;;;4994682;28;93681;-73
2022/04/18 03:31:37;;;;;;;12.70;10.80;;;;;;;;;;5010618;28;92579;-73
2022/04/18 03:34:06;;;;;;;15.60;11.00;;;;;;;;;;5007790;28;95964;-73
2022/04/18 03:42:06;;;;;;;19.75;11.90;;;;;;;;;;5013019;28;96034;-73
2022/04/18 03:44:32;;;;;;;14.18;10.75;;;;;;;;;;5010188;28;92560;-73
2022/04/18 03:46:59;;;;;;;13.60;11.18;;;;;;;;;;4996583;28;93604;-73
2022/04/18 03:49:25;;;;;;;12.10;10.00;;;;;;;;;;4985679;28;95213;-73
2022/04/18 03:51:54;;;;;;;13.38;10.80;;;;;;;;;;4984099;28;91970;-73
2022/04/18 03:54:20;;;;;;;12.15;10.88;;;;;;;;;;4980770;28;93397;-73
2022/04/18 03:56:46;;;;;;;12.57;10.48;;;;;;;;;;4985290;28;92920;-74
2022/04/18 03:59:30;;;;;;;13.05;11.50;;;;;;;;;;5004463;28;95063;-73
2022/04/18 04:02:00;;;;;;;12.07;10.65;;;;;;;;;;4990538;28;97817;-73
2022/04/18 04:04:29;;;;;;;13.98;11.98;;;;;;;;;;5007236;28;94629;-73
2022/04/18 04:06:59;;;;;;;14.32;10.88;;;;;;;;;;5010564;28;95527;-73
2022/04/18 04:09:25;;;;;;;12.25;10.75;;;;;;;;;;4993185;28;94998;-73
2022/04/18 04:11:52;;;;;;;15.80;11.35;;;;;;;;;;5004627;28;92545;-73
2022/04/18 04:14:20;;;;;;;12.75;11.45;;;;;;;;;;5011446;28;93771;-73
2022/04/18 04:16:48;;;;;;;11.60;10.43;;;;;;;;;;5007404;28;94910;-73
2022/04/18 04:19:14;;;;;;;14.73;11.05;;;;;;;;;;5008717;28;93077;-73
2022/04/18 04:21:41;;;;;;;18.27;10.70;;;;;;;;;;5009747;28;95008;-73
2022/04/18 04:24:08;;;;;;;13.10;10.85;;;;;;;;;;4991158;28;95711;-73
2022/04/18 04:26:44;;;;;;;15.20;10.73;;;;;;;;;;4996723;28;92552;-73
2022/04/18 04:29:15;;;;;;;16.05;10.45;;;;;;;;;;4993947;28;95770;-73
2022/04/18 04:31:54;;;;;;;10.60;9.55;;;;;;;;;;5005987;28;93002;-73
2022/04/18 04:34:22;;;;;;;12.55;9.90;;;;;;;;;;4991402;28;95277;-73
2022/04/18 04:37:07;;;;;;;12.20;10.38;;;;;;;;;;4975677;28;92575;-73
2022/04/18 04:39:33;;;;;;;14.85;10.45;;;;;;;;;;4976061;28;92509;-73
2022/04/18 04:42:00;;;;;;;11.25;9.63;;;;;;;;;;5013805;28;94480;-73
2022/04/18 04:44:27;;;;;;;11.93;9.60;;;;;;;;;;5012031;28;93142;-73
2022/04/18 04:46:58;;;;;;;17.75;10.05;;;;;;;;;;4990842;28;92488;-74
2022/04/18 04:49:27;;;;;;;12.18;9.30;;;;;;;;;;5010088;28;94910;-74
2022/04/18 04:52:20;;;;;;;15.13;9.67;;;;;;;;;;5006698;28;92696;-74
2022/04/18 04:54:49;;;;;;;12.90;9.30;;;;;;;;;;5008669;28;95464;-74
2022/04/18 04:57:21;;;;;;;11.48;9.57;;;;;;;;;;4989841;28;94328;-74
2022/04/18 05:00:06;;;;;;;17.33;9.77;;;;;;;;;;4987781;28;93082;-74
2022/04/18 05:02:54;;;;;;;9.93;8.93;;;;;;;;;;5012632;28;94973;-74
2022/04/18 05:05:21;;;;;;;14.80;9.25;;;;;;;;;;5012826;28;93159;-73
2022/04/18 05:07:48;;;;;;;10.98;7.82;;;;;;;;;;5011645;28;91784;-74
2022/04/18 05:10:16;;;;;;;9.65;8.63;;;;;;;;;;5012520;28;94320;-74
2022/04/18 05:12:43;;;;;;;10.85;9.65;;;;;;;;;;5012855;28;95352;-74
2022/04/18 05:15:11;;;;;;;10.52;8.68;;;;;;;;;;4972198;28;95018;-74
2022/04/18 05:18:03;;;;;;;9.75;8.57;;;;;;;;;;4981338;28;92891;-74
2022/04/18 05:20:29;;;;;;;10.45;7.30;;;;;;;;;;5011574;28;93324;-74
2022/04/18 05:22:57;;;;;;;13.82;9.00;;;;;;;;;;5001421;28;95262;-74
2022/04/18 05:25:24;;;;;;;10.40;8.30;;;;;;;;;;5012561;28;95780;-75
2022/04/18 05:27:51;;;;;;;10.98;8.00;;;;;;;;;;5011421;28;93024;-75
2022/04/18 05:30:31;;;;;;;12.90;7.75;;;;;;;;;;4990121;28;93186;-74
2022/04/18 05:32:58;;;;;;;8.57;7.88;;;;;;;;;;5014937;28;94615;-74
2022/04/18 05:35:25;;;;;;;9.45;7.68;;;;;;;;;;4990254;28;94829;-74
2022/04/18 05:37:53;;;;;;;10.68;8.68;;;;;;;;;;4981637;28;93601;-74
2022/04/18 05:40:27;;;;;;;10.57;8.20;;;;;;;;;;5006374;28;96836;-74
2022/04/18 05:42:54;;;;;;;13.07;7.53;;;;;;;;;;4993444;28;98167;-74
2022/04/18 05:45:21;;;;;;;8.82;8.02;;;;;;;;;;4992118;28;94213;-74
2022/04/18 05:47:59;;;;;;;10.48;7.65;;;;;;;;;;4992347;28;93211;-74
2022/04/18 05:50:29;;;;;;;12.45;7.68;;;;;;;;;;5008702;28;92909;-74
2022/04/18 05:53:14;;;;;;;8.95;8.02;;;;;;;;;;4985143;28;92967;-74
2022/04/18 05:56:16;;;;;;;7.77;7.00;;;;;;;;;;4976344;28;92443;-74
2022/04/18 05:58:48;;;;;;;7.95;7.15;;;;;;;;;;4996288;28;95212;-74
2022/04/18 06:01:34;;;;;;;9.30;7.35;;;;;;;;;;5005615;28;92462;-74
2022/04/18 06:04:06;;;;;;;10.85;7.38;;;;;;;;;;5001177;28;95018;-74
2022/04/18 06:06:33;;;;;;;7.88;7.20;;;;;;;;;;4992061;28;95401;-74
2022/04/18 06:08:59;;;;;;;7.32;6.63;;;;;;;;;;5012952;28;92905;-74
2022/04/18 06:11:27;;;;;;;9.98;7.63;;;;;;;;;;5009850;28;95907;-74
2022/04/18 06:14:13;;;;;;;9.43;6.90;;;;;;;;;;4989501;28;93798;-74
2022/04/18 06:16:46;;;;;;;;;;;;;;;;;;5007732;28;94415;-74
2022/04/18 06:19:14;;;;;;;8.20;7.45;;;;;;;;;;5016887;28;92704;-74
2022/04/18 06:21:41;;;;;;;7.13;6.45;;;;;;;;;;5004374;28;93625;-74
2022/04/18 06:24:09;;;;;;;6.55;6.00;;;;;;;;;;4992464;28;95528;-74
2022/04/18 06:27:01;;;;;;;6.90;6.20;;;;;;;;;;4984990;28;93659;-74
2022/04/18 06:29:32;;;;;;;8.70;6.75;;;;;;;;;;5011961;28;92568;-74
2022/04/18 06:31:59;;;;;;;9.32;6.82;;;;;;;;;;5003247;28;95717;-74
2022/04/18 06:34:27;;;;;;;10.43;6.18;;;;;;;;;;5010088;28;93172;-74
2022/04/18 06:36:59;;;;;;;13.60;6.43;;;;;;;;;;5012466;28;92540;-74
2022/04/18 06:39:39;;;;;;;8.15;7.28;;;;;;;;;;5006074;28;95317;-75
2022/04/18 06:42:12;;;;;;;5.53;5.13;;;;;;;;;;5012040;28;94548;-74
2022/04/18 06:44:46;;;;;;;7.25;6.45;;;;;;;;;;5010075;28;94374;-75
2022/04/18 06:47:14;;;;;;;8.50;6.20;;;;;;;;;;5004066;28;95557;-75
2022/04/18 06:49:57;;;;;;;8.38;6.43;;;;;;;;;;4998246;28;92030;-75
2022/04/18 06:52:46;;;;;;;6.30;5.60;;;;;;;;;;5008069;28;92458;-75
2022/04/18 06:58:20;;;;;;;6.13;5.53;;;;;;;;;;4991516;28;94973;-74
2022/04/18 07:00:48;;;;;;;8.57;6.03;;;;;;;;;;4989368;28;95417;-75
2022/04/18 07:03:18;;;;;;;7.00;5.70;;;;;;;;;;4984042;28;95367;-75
2022/04/18 07:05:44;;;;;;;6.15;5.38;;;;;;;;;;4985425;28;93129;-75
2022/04/18 07:08:11;;;;;;;14.35;5.53;;;;;;;;;;4980097;28;94850;-76
2022/04/18 07:10:38;;;;;;;8.73;4.93;;;;;;;;;;4977105;28;94978;-75
2022/04/18 07:13:10;;;;;;;5.82;5.25;;;;;;;;;;4982338;28;93882;-74
2022/04/18 07:15:37;;;;;;;6.75;5.00;;;;;;;;;;4985015;28;94361;-74
2022/04/18 07:18:06;;;;;;;5.25;4.75;;;;;;;;;;4990666;28;94811;-75
2022/04/18 07:20:32;;;;;;;6.18;4.72;;;;;;;;;;4994365;28;93939;-74
2022/04/18 07:22:58;;;;;;;5.72;4.88;;;;;;;;;;4990575;28;96533;-75
2022/04/18 07:25:34;;;;;;;4.80;3.75;;;;;;;;;;4992078;28;94813;-74
2022/04/18 07:28:30;;;;;;;8.32;5.03;;;;;;;;;;4975411;28;93772;-75
2022/04/18 07:30:58;;;;;;;5.25;4.22;;;;;;;;;;4996577;28;92521;-76
2022/04/18 07:33:24;;;;;;;4.93;4.47;;;;;;;;;;4971638;28;95339;-76
2022/04/18 07:35:51;;;;;;;7.47;4.35;;;;;;;;;;4976932;28;95353;-76
2022/04/18 07:41:07;;;;;;;5.28;4.22;;;;;;;;;;5009740;28;93375;-75
2022/04/18 07:43:41;;;;;;;5.25;4.15;;;;;;;;;;4995024;28;94908;-75
2022/04/18 07:46:10;;;;;;;4.55;3.55;;;;;;;;;;4981862;28;94539;-75
2022/04/18 07:48:37;;;;;;;4.18;3.78;;;;;;;;;;4992334;28;95280;-75
2022/04/18 07:53:49;;;;;;;5.22;3.47;;;;;;;;;;4987085;28;94505;-75
2022/04/18 07:56:16;;;;;;;4.88;4.38;;;;;;;;;;4998881;28;95397;-75
2022/04/18 07:58:42;;;;;;;4.28;3.67;;;;;;;;;;5008574;28;92495;-75
2022/04/18 08:01:16;;;;;;;4.70;3.30;;;;;;;;;;4991733;28;94933;-75
2022/04/18 08:03:42;;;;;;;3.85;3.50;;;;;;;;;;4989666;28;94373;-75
2022/04/18 08:06:09;;;;;;;5.45;3.50;;;;;;;;;;4995379;28;92340;-75
2022/04/18 08:08:42;;;;;;;3.42;3.17;;;;;;;;;;4993232;28;93294;-75
2022/04/18 08:11:17;;;;;;;8.15;3.10;;;;;;;;;;4997472;28;94373;-75
2022/04/18 08:13:49;;;;;;;3.22;3.03;;;;;;;;;;4993058;28;94950;-75
2022/04/18 08:16:34;;;;;;;3.80;3.42;;;;;;;;;;4993158;28;93111;-74
2022/04/18 08:19:07;;;;;;;3.58;3.25;;;;;;;;;;5011207;28;92466;-75
2022/04/18 08:21:34;;;;;;;3.42;3.13;;;;;;;;;;4997231;28;94922;-75
2022/04/18 08:24:00;;;;;;;3.47;3.17;;;;;;;;;;5015087;28;93203;-75
2022/04/18 08:26:37;;;;;;;3.08;2.88;;;;;;;;;;5000533;28;92908;-75
2022/04/18 08:29:11;;;;;;;3.53;2.95;;;;;;;;;;5007638;28;94355;-75
2022/04/18 08:32:11;;;;;;;6.38;3.00;;;;;;;;;;4991221;28;92867;-75
2022/04/18 08:34:39;;;;;;;4.40;3.50;;;;;;;;;;4993813;28;92528;-74
2022/04/18 08:37:09;;;;;;;4.88;2.83;;;;;;;;;;4974840;28;92892;-74
2022/04/18 08:40:11;;;;;;;2.95;2.75;;;;;;;;;;4951583;28;95031;-75
2022/04/18 08:42:40;;;;;;;2.83;2.63;;;;;;;;;;4984143;28;97926;-75
2022/04/18 08:45:12;;;;;;;2.55;2.35;;;;;;;;;;4992620;28;94352;-75
2022/04/18 08:53:29;;;;;;;8.60;2.40;;;;;;;;;;4955388;28;95869;-75
2022/04/18 08:55:57;;;;;;;2.33;2.10;;;;;;;;;;4990211;28;94172;-75
2022/04/18 08:58:29;;;;;;;8.20;2.60;;;;;;;;;;4996518;28;95775;-76
2022/04/18 09:00:57;;;;;;;2.70;2.50;;;;;;;;;;5000622;28;94262;-75
2022/04/18 09:03:48;;;;;;;2.80;2.63;;;;;;;;;;4992346;28;94676;-74
2022/04/18 09:06:16;;;;;;;3.13;2.60;;;;;;;;;;4995224;28;96656;-75
2022/04/18 09:08:57;;;;;;;2.90;2.33;;;;;;;;;;4991220;28;92549;-76
2022/04/18 09:11:29;;;;;;;3.17;2.58;;;;;;;;;;5001537;28;93732;-74
2022/04/18 09:14:17;;;;;;;3.88;2.55;;;;;;;;;;4981441;28;95511;-74
2022/04/18 09:16:47;;;;;;;2.75;2.58;;;;;;;;;;4984410;28;92636;-74
2022/04/18 09:19:36;;;;;;;2.85;2.55;;;;;;;;;;4984577;28;94718;-75
2022/04/18 09:22:07;;;;;;;2.80;2.60;;;;;;;;;;4994664;28;93386;-75
2022/04/18 09:24:39;;;;;;;5.97;2.70;;;;;;;;;;4991321;28;95364;-75
2022/04/18 09:27:24;;;;;;;2.63;2.43;;;;;;;;;;4987245;28;95527;-75
2022/04/18 09:30:06;;;;;;;2.67;2.47;;;;;;;;;;4986553;28;92621;-75
2022/04/18 09:32:35;;;;;;;2.85;2.55;;;;;;;;;;5002304;28;95817;-80
2022/04/18 09:35:30;;;;;;;2.45;2.28;;;;;;;;;;4980525;28;92856;-76
2022/04/18 09:38:00;;;;;;;2.65;2.45;;;;;;;;;;4993478;28;92596;-76
2022/04/18 09:40:47;;;;;;;2.75;2.55;;;;;;;;;;4981756;28;92645;-77
2022/04/18 09:43:15;;;;;;;2.65;2.45;;;;;;;;;;4991407;28;95675;-75
2022/04/18 09:45:42;;;;;;;3.78;2.40;;;;;;;;;;4994275;28;93282;-76
2022/04/18 09:48:14;;;;;;;4.40;2.90;;;;;;;;;;4983241;28;94379;-76
2022/04/18 09:51:01;;;;;;;7.05;2.67;;;;;;;;;;4983857;28;91800;-77
2022/04/18 09:53:39;;;;;;;3.00;2.72;;;;;;;;;;4983960;28;93162;-77
2022/04/18 09:56:05;;;;;;;2.60;2.40;;;;;;;;;;4993361;28;94224;-77
2022/04/18 09:58:32;;;;;;;2.97;2.60;;;;;;;;;;4992214;28;94934;-77
2022/04/18 10:01:19;;;;;;;2.80;2.60;;;;;;;;;;4993377;28;96568;-77
2022/04/18 10:03:46;;;;;;;2.38;2.17;;;;;;;;;;4986498;28;94397;-76
2022/04/18 10:06:13;;;;;;;3.55;2.65;;;;;;;;;;4977285;28;92513;-76
2022/04/18 10:08:39;;;;;;;2.40;2.30;;;;;;;;;;4972422;28;94250;-76
2022/04/18 10:11:11;;;;;;;5.32;2.58;;;;;;;;;;4993630;28;92764;-76
2022/04/18 10:13:37;;;;;;;2.70;2.50;;;;;;;;;;4993552;28;93749;-76
2022/04/18 10:16:05;;;;;;;2.70;2.50;;;;;;;;;;4974639;28;92367;-76
2022/04/18 10:18:48;;;;;;;2.72;2.53;;;;;;;;;;4974091;28;92575;-76
2022/04/18 10:21:24;;;;;;;2.63;2.28;;;;;;;;;;4974341;28;93035;-76
2022/04/18 10:24:01;;;;;;;3.20;2.47;;;;;;;;;;4972062;28;95989;-76
2022/04/18 10:26:34;;;;;;;;;;;;;;;;;;4974457;28;92467;-76
2022/04/18 10:29:03;;;;;;;3.03;2.33;;;;;;;;;;4977157;28;123010;-75
2022/04/18 10:31:31;;;;;;;2.35;2.15;;;;;;;;;;4976176;28;93071;-76
2022/04/18 10:33:58;;;;;;;2.53;2.30;;;;;;;;;;4973788;28;93998;-76
2022/04/18 10:36:28;;;;;;;4.35;2.38;;;;;;;;;;4976889;28;93362;-76
2022/04/18 10:38:56;;;;;;;2.20;2.00;;;;;;;;;;4974077;28;92417;-76
2022/04/18 10:41:35;;;;;;;6.82;2.03;;;;;;;;;;4974456;28;93115;-76
2022/04/18 10:44:06;;;;;;;2.25;2.15;;;;;;;;;;4972859;28;94181;-76
2022/04/18 10:46:32;;;;;;;3.45;2.22;;;;;;;;;;4973430;28;92521;-76
2022/04/18 10:49:13;;;;;;;2.53;2.20;;;;;;;;;;4975878;28;95269;-77
2022/04/18 10:51:40;;;;;;;2.28;2.17;;;;;;;;;;4995734;28;94101;-76
2022/04/18 10:54:09;;;;;;;3.63;2.40;;;;;;;;;;4992189;28;93283;-76
2022/04/18 10:56:47;;;;;;;36.58;2.33;;;;;;;;;;5003649;28;94168;-77
2022/04/18 10:59:14;;;;;;;1.88;1.77;;;;;;;;;;4992924;28;92434;-77
2022/04/18 11:01:41;;;;;;;3.28;2.10;;;;;;;;;;4975824;28;94189;-78
2022/04/18 11:04:09;;;;;;;2.10;2.00;;;;;;;;;;4973939;28;93243;-77
2022/04/18 11:06:40;;;;;;;3.40;1.83;;;;;;;;;;4972290;28;92093;-77
2022/04/18 11:09:08;;;;;;;2.40;2.20;;;;;;;;;;4973424;28;93491;-77
2022/04/18 11:11:35;;;;;;;2.17;2.03;;;;;;;;;;4973183;28;93421;-77
2022/04/18 11:14:01;;;;;;;2.08;1.98;;;;;;;;;;4984441;28;95351;-78
2022/04/18 11:16:28;;;;;;;4.85;1.95;;;;;;;;;;4973311;28;93491;-77
2022/04/18 11:19:07;;;;;;;2.47;2.28;;;;;;;;;;4973518;28;92631;-77
2022/04/18 11:21:52;;;;;;;6.35;2.03;;;;;;;;;;4973160;28;93125;-77
2022/04/18 11:24:37;;;;;;;2.65;2.22;;;;;;;;;;4979466;28;94541;-78
2022/04/18 11:27:08;;;;;;;6.18;2.67;;;;;;;;;;4972683;28;92544;-77
2022/04/18 11:29:34;;;;;;;3.58;2.42;;;;;;;;;;4973176;28;94133;-77
2022/04/18 11:32:01;;;;;;;2.42;2.22;;;;;;;;;;4988918;28;95344;-77
2022/04/18 11:34:28;;;;;;;2.90;2.70;;;;;;;;;;4971562;28;92499;-77
2022/04/18 11:36:55;;;;;;;2.45;2.35;;;;;;;;;;4976003;28;94058;-77
2022/04/18 11:39:22;;;;;;;2.60;2.40;;;;;;;;;;4976256;28;94870;-77
2022/04/18 11:41:48;;;;;;;2.50;2.30;;;;;;;;;;4978965;28;96319;-77
2022/04/18 11:44:18;;;;;;;2.28;2.17;;;;;;;;;;4996939;28;94221;-77
2022/04/18 11:46:45;;;;;;;2.28;2.08;;;;;;;;;;4998149;28;92460;-77
2022/04/18 11:49:12;;;;;;;2.25;2.05;;;;;;;;;;4980427;28;93935;-77
2022/04/18 11:51:42;;;;;;;2.50;2.30;;;;;;;;;;4992803;28;94209;-77
2022/04/18 11:54:08;;;;;;;3.30;2.88;;;;;;;;;;4997210;28;92583;-77
2022/04/18 11:56:34;;;;;;;5.57;2.70;;;;;;;;;;4996099;28;94001;-77
2022/04/18 11:59:04;;;;;;;3.35;2.83;;;;;;;;;;4992378;28;92532;-77
2022/04/18 12:07:01;;;;;;;2.60;2.40;;;;;;;;;;4975804;28;93437;-78
2022/04/18 12:09:27;;;;;;;2.38;2.22;;;;;;;;;;4991197;28;93948;-77
2022/04/18 12:11:54;;;;;;;5.38;2.60;;;;;;;;;;4985312;28;94180;-76
2022/04/18 12:14:20;;;;;;;3.00;2.58;;;;;;;;;;4973148;28;93077;-77
2022/04/18 12:16:47;;;;;;;2.50;2.40;;;;;;;;;;4972245;28;93902;-80
2022/04/18 12:19:15;;;;;;;4.75;2.72;;;;;;;;;;4976120;28;93224;-77
2022/04/18 12:21:42;;;;;;;2.70;2.50;;;;;;;;;;4972409;28;93942;-77
2022/04/18 12:24:09;;;;;;;4.78;2.83;;;;;;;;;;4978277;28;93453;-77
2022/04/18 12:26:35;;;;;;;30.98;7.28;;;;;;;;;;4991114;28;92765;-77
2022/04/18 12:29:06;;;;;;;5.43;2.83;;;;;;;;;;4990141;28;94929;-78
2022/04/18 12:31:32;;;;;;;4.28;2.75;;;;;;;;;;4991566;28;94131;-78
2022/04/18 12:33:59;;;;;;;3.15;2.90;;;;;;;;;;4991984;28;92590;-78
2022/04/18 12:36:26;;;;;;;3.38;2.92;;;;;;;;;;4991107;28;93919;-77
2022/04/18 12:38:53;;;;;;;5.22;3.40;;;;;;;;;;4992069;28;93616;-78
2022/04/18 12:41:29;;;;;;;3.00;2.80;;;;;;;;;;4985509;28;93003;-77
2022/04/18 12:43:56;;;;;;;3.10;2.55;;;;;;;;;;4971463;28;92952;-77
2022/04/18 12:46:25;;;;;;;3.58;3.08;;;;;;;;;;4974384;28;91755;-77
2022/04/18 12:48:53;;;;;;;3.42;3.20;;;;;;;;;;4980403;28;93449;-77
2022/04/18 12:51:29;;;;;;;2.90;2.80;;;;;;;;;;4994221;28;94408;-77
2022/04/18 12:53:56;;;;;;;7.38;3.03;;;;;;;;;;4993550;28;95039;-77
2022/04/18 12:56:23;;;;;;;3.65;3.35;;;;;;;;;;5026855;27;96426;-77
2022/04/18 12:59:00;;;;;;;3.00;2.80;;;;;;;;;;4994631;28;94121;-77
2022/04/18 13:01:34;;;;;;;4.43;3.33;;;;;;;;;;4995226;28;92484;-77
2022/04/18 13:04:02;;;;;;;5.80;2.88;;;;;;;;;;4997398;28;93876;-77
2022/04/18 13:06:29;;;;;;;3.13;2.83;;;;;;;;;;4995251;28;92458;-77
2022/04/18 13:08:57;;;;;;;3.55;2.90;;;;;;;;;;4994932;28;93234;-77
2022/04/18 13:11:34;;;;;;;4.55;2.90;;;;;;;;;;4994479;28;93436;-77
2022/04/18 13:14:01;;;;;;;2.67;2.47;;;;;;;;;;4995087;28;92476;-77
2022/04/18 13:16:28;;;;;;;3.45;2.72;;;;;;;;;;4990842;28;93023;-77
2022/04/18 13:19:01;;;;;;;5.43;2.95;;;;;;;;;;4982290;28;95478;-77
2022/04/18 13:21:28;;;;;;;3.55;3.30;;;;;;;;;;4994730;28;92527;-78
2022/04/18 13:23:55;;;;;;;7.80;3.42;;;;;;;;;;4995151;28;93859;-77
2022/04/18 13:26:22;;;;;;;3.95;2.97;;;;;;;;;;5003365;28;94638;-77
2022/04/18 13:28:48;;;;;;;6.63;2.90;;;;;;;;;;4996671;28;93169;-77
2022/04/18 13:31:15;;;;;;;3.50;3.20;;;;;;;;;;4998977;28;93354;-77
2022/04/18 13:33:41;;;;;;;3.53;3.13;;;;;;;;;;4987972;28;94398;-77
2022/04/18 13:38:53;;;;;;;3.08;2.88;;;;;;;;;;5009496;28;94327;-77
2022/04/18 13:41:20;;;;;;;3.75;2.70;;;;;;;;;;5002280;28;92635;-77
2022/04/18 13:43:46;;;;;;;4.65;3.35;;;;;;;;;;5006404;28;95575;-77
2022/04/18 13:46:13;;;;;;;4.45;3.20;;;;;;;;;;4988889;28;94934;-77
2022/04/18 13:48:39;;;;;;;2.97;2.67;;;;;;;;;;4987807;28;92518;-77
2022/04/18 13:51:06;;;;;;;3.42;3.13;;;;;;;;;;4992269;28;94476;-77
2022/04/18 13:53:32;;;;;;;3.38;3.05;;;;;;;;;;5009180;28;92483;-78
2022/04/18 13:55:59;;;;;;;6.30;2.70;;;;;;;;;;4997297;28;93738;-78
2022/04/18 13:58:26;;;;;;;2.63;2.45;;;;;;;;;;4989408;28;95501;-77
2022/04/18 14:00:52;;;;;;;5.47;2.35;;;;;;;;;;5003881;28;91797;-77
2022/04/18 14:03:18;;;;;;;2.67;2.58;;;;;;;;;;4992248;28;92467;-77
2022/04/18 14:05:45;;;;;;;3.25;2.95;;;;;;;;;;4988280;28;94249;-77
2022/04/18 14:08:12;;;;;;;3.30;3.10;;;;;;;;;;4986075;28;96082;-77
2022/04/18 14:10:38;;;;;;;8.07;3.03;;;;;;;;;;4985548;28;94082;-77
2022/04/18 14:13:05;;;;;;;3.05;2.85;;;;;;;;;;4990471;28;92594;-77
2022/04/18 14:21:01;;;;;;;3.33;3.00;;;;;;;;;;4985329;28;92712;-77
2022/04/18 14:23:28;;;;;;;4.95;2.97;;;;;;;;;;4979057;28;93845;-77
2022/04/18 14:25:54;;;;;;;2.92;2.72;;;;;;;;;;4988936;28;92350;-77
2022/04/18 14:28:20;;;;;;;3.30;3.10;;;;;;;;;;4991173;28;92963;-77
2022/04/18 14:30:47;;;;;;;5.13;2.70;;;;;;;;;;4987651;28;94226;-77
2022/04/18 14:33:13;;;;;;;3.70;2.83;;;;;;;;;;4986598;28;95286;-77
2022/04/18 14:35:40;;;;;;;3.30;3.10;;;;;;;;;;4989560;28;95940;-78
2022/04/18 14:38:06;;;;;;;3.28;3.08;;;;;;;;;;5011860;28;93753;-77
2022/04/18 14:40:32;;;;;;;3.83;3.53;;;;;;;;;;4994325;28;92803;-77
2022/04/18 14:42:59;;;;;;;3.60;3.33;;;;;;;;;;4992881;28;94036;-77
2022/04/18 14:45:25;;;;;;;3.40;3.20;;;;;;;;;;4992289;28;94109;-77
2022/04/18 14:47:51;;;;;;;3.53;3.22;;;;;;;;;;4993525;28;92446;-77
2022/04/18 14:50:18;;;;;;;8.82;3.63;;;;;;;;;;4993229;28;94286;-77
2022/04/18 14:52:44;;;;;;;3.35;3.05;;;;;;;;;;4995751;28;93385;-77
2022/04/18 14:55:10;;;;;;;3.60;3.28;;;;;;;;;;4993130;28;93931;-77
2022/04/18 14:57:37;;;;;;;3.85;3.20;;;;;;;;;;4990395;28;96585;-77
2022/04/18 15:00:04;;;;;;;3.38;3.05;;;;;;;;;;4993157;28;92400;-77
2022/04/18 15:02:30;;;;;;;3.00;2.80;;;;;;;;;;4993256;28;92455;-77
2022/04/18 15:04:56;;;;;;;4.93;2.90;;;;;;;;;;4992368;28;94172;-77
2022/04/18 15:07:23;;;;;;;4.07;3.00;;;;;;;;;;4992684;28;92444;-77
2022/04/18 15:09:50;;;;;;;3.08;2.90;;;;;;;;;;4991794;28;94034;-78
2022/04/18 15:12:16;;;;;;;3.05;2.85;;;;;;;;;;4992185;28;94394;-77
2022/04/18 15:14:42;;;;;;;4.53;3.30;;;;;;;;;;4996159;28;91988;-77
2022/04/18 15:17:09;;;;;;;4.53;4.07;;;;;;;;;;4992483;28;93653;-78
2022/04/18 15:19:35;;;;;;;3.83;3.60;;;;;;;;;;4992040;28;92939;-77
2022/04/18 15:22:03;;;;;;;5.38;3.55;;;;;;;;;;4991609;28;94885;-77
2022/04/18 15:24:30;;;;;;;3.10;2.80;;;;;;;;;;4992158;28;93587;-77
2022/04/18 15:26:57;;;;;;;5.43;3.35;;;;;;;;;;4992326;28;92431;-77
2022/04/18 15:29:23;;;;;;;4.30;3.40;;;;;;;;;;4992140;28;94113;-77
2022/04/18 15:32:07;;;;;;;9.50;3.55;;;;;;;;;;4992147;28;93993;-77
2022/04/18 15:34:34;;;;;;;4.68;3.75;;;;;;;;;;4992795;28;92523;-77